Time;durP1;ratioP1;P1;durP2;ratioP2;P2;SDS_P1;SDS_P2;PMS_P1;PMS_P2;Temp;Humidity;BMP_temperature;BMP_pressure;BME280_temperature;BME280_humidity;BME280_pressure;Samples;Min_cycle;Max_cycle;Signal;HPM_P1;HPM_P2
2021/05/14 00:00:13;;;;;;;3.53;1.20;;;;;;;12.30;69.76;93185.59;4732859;30;20192;-93
2021/05/14 00:02:39;;;;;;;3.47;1.20;;;;;;;12.10;68.94;93157.88;4820329;29;20040;-91
2021/05/14 00:06:00;;;;;;;1.67;1.27;;;;;;;11.89;67.73;93119.09;4854467;29;20036;-93
2021/05/14 00:08:47;;;;;;;3.40;1.55;;;;;;;11.94;67.78;93126.88;4790716;29;20139;-93
2021/05/14 00:12:17;;;;;;;;;;;;;;;;;;;;;
2021/05/14 00:15:12;;;;;;;4.32;1.42;;;;;;;12.18;68.56;93158.94;4880017;29;20056;-91
2021/05/14 00:18:19;;;;;;;2.60;1.10;;;;;;;12.34;67.68;93173.28;4881070;29;20099;-92
2021/05/14 00:25:40;;;;;;;;;;;;;;;;;;;;;
2021/05/14 00:32:20;;;;;;;;;;;;;;;;;;;;;
2021/05/14 00:35:12;;;;;;;;;;;;;;;;;;;;;
2021/05/14 00:41:07;;;;;;;6.53;1.65;;;;;;;11.75;72.44;93192.59;4753826;29;20184;-91
2021/05/14 00:44:14;;;;;;;7.03;1.92;;;;;;;11.29;72.87;93128.50;4746793;29;20035;-94
2021/05/14 00:46:39;;;;;;;2.78;1.30;;;;;;;11.25;72.27;93151.38;4733745;29;20050;-95
2021/05/14 00:49:47;;;;;;;6.43;1.95;;;;;;;11.10;71.87;93141.22;4773105;29;20053;-93
2021/05/14 00:52:43;;;;;;;3.97;1.60;;;;;;;11.39;72.09;93168.97;4793817;29;20438;-92
2021/05/14 00:55:35;;;;;;;3.33;1.75;;;;;;;11.42;72.06;93185.03;4764704;29;20042;-92
2021/05/14 00:58:03;;;;;;;5.70;1.70;;;;;;;11.59;71.75;93206.22;4777118;29;20050;-93
2021/05/14 01:07:46;;;;;;;;;;;;;;;;;;;;;
2021/05/14 01:16:51;;;;;;;3.13;1.48;;;;;;;11.15;71.92;93179.97;4781579;29;20104;-93
2021/05/14 01:19:51;;;;;;;3.60;1.58;;;;;;;11.41;71.95;93209.16;4737534;29;20051;-92
2021/05/14 01:22:43;;;;;;;4.35;1.40;;;;;;;11.16;72.57;93177.03;4725467;29;20058;-94
2021/05/14 01:25:09;;;;;;;3.28;1.58;;;;;;;10.98;71.95;93142.91;4815241;29;20576;-93
2021/05/14 01:27:34;;;;;;;6.72;1.52;;;;;;;10.94;72.59;93141.97;4899124;29;20059;-92
2021/05/14 01:34:28;;;;;;;3.55;1.42;;;;;;;11.20;72.90;93185.91;4741132;29;20201;-91
2021/05/14 01:37:37;;;;;;;3.83;1.30;;;;;;;10.82;72.35;93148.59;4815093;29;20046;-91
2021/05/14 01:48:05;;;;;;;3.08;1.30;;;;;;;11.14;73.71;93213.56;4781429;29;20122;-92
2021/05/14 01:54:54;;;;;;;5.00;2.10;;;;;;;10.50;73.63;93159.50;4699410;29;20465;-94
2021/05/14 02:01:58;;;;;;;4.75;1.55;;;;;;;10.44;73.32;93158.06;4743750;29;20460;-93
2021/05/14 02:10:45;;;;;;;3.20;1.35;;;;;;;10.67;73.17;93169.38;4822281;29;20566;-92
2021/05/14 02:14:01;;;;;;;4.95;1.67;;;;;;;11.00;73.65;93220.81;4836458;29;20635;-92
2021/05/14 02:17:10;;;;;;;5.35;1.67;;;;;;;11.01;74.21;93225.03;4762047;29;20808;-91
2021/05/14 02:20:05;;;;;;;6.10;1.45;;;;;;;10.77;73.18;93191.03;4829917;29;20033;-93
2021/05/14 02:23:20;;;;;;;2.67;1.40;;;;;;;10.86;73.74;93218.28;4774307;29;20050;-92
2021/05/14 02:26:42;;;;;;;;;;;;;;;;;;;;;
2021/05/14 02:33:11;;;;;;;;;;;;;;;;;;;;;
2021/05/14 02:35:46;;;;;;;;;;;;;;;;;;;;;
2021/05/14 02:46:06;;;;;;;;;;;;;;;;;;;;;
2021/05/14 02:48:34;;;;;;;5.20;1.40;;;;;;;10.55;74.88;93201.66;4824750;29;20034;-92
2021/05/14 02:50:59;;;;;;;4.95;1.35;;;;;;;10.37;74.93;93178.84;4838866;29;20140;-92
2021/05/14 03:08:16;;;;;;;6.00;1.55;;;;;;;10.22;75.63;93187.13;4551191;30;20112;-93
2021/05/14 03:10:55;;;;;;;5.20;1.90;;;;;;;10.29;75.99;93205.97;4547075;30;20040;-92
2021/05/14 03:14:23;;;;;;;9.40;2.72;;;;;;;10.67;75.09;93236.22;4574199;30;20141;-91
2021/05/14 03:17:42;;;;;;;42.22;14.63;;;;;;;10.76;75.07;93225.69;4680121;29;20059;-92
2021/05/14 03:21:04;;;;;;;11.00;3.45;;;;;;;10.93;74.20;93225.00;4825975;29;20120;-89
2021/05/14 03:23:44;;;;;;;10.25;3.90;;;;;;;11.07;72.97;93201.88;4821080;29;20136;-92
2021/05/14 03:59:55;;;;;;;4.25;1.75;;;;;;;16.65;54.58;93240.25;4788315;29;20709;-92
2021/05/14 04:03:09;;;;;;;3.85;1.67;;;;;;;16.91;53.62;93191.00;4818935;29;20049;-93
2021/05/14 04:05:54;;;;;;;7.70;2.85;;;;;;;18.33;50.42;93213.81;4844188;29;20052;-92
2021/05/14 04:08:38;;;;;;;6.20;2.58;;;;;;;18.53;49.53;93180.59;4722122;29;20437;-92
2021/05/14 04:11:42;;;;;;;3.47;2.25;;;;;;;18.85;48.46;93186.59;4771628;29;20046;-92
2021/05/14 04:17:22;;;;;;;9.17;2.60;;;;;;;20.24;44.69;93212.63;4892550;29;20090;-94
2021/05/14 04:20:20;;;;;;;9.32;2.58;;;;;;;20.04;44.93;93223.81;4808253;29;20048;-92
2021/05/14 04:23:08;;;;;;;13.10;3.70;;;;;;;19.17;47.42;93204.00;4808939;29;20112;-91
2021/05/14 04:25:54;;;;;;;12.15;3.35;;;;;;;19.79;46.49;93223.47;4807718;29;20052;-91
2021/05/14 04:28:30;;;;;;;8.18;3.22;;;;;;;20.14;44.82;93223.97;4833331;29;20105;-95
2021/05/14 04:35:05;;;;;;;7.03;3.58;;;;;;;20.74;44.81;93253.56;4701494;29;20824;-93
2021/05/14 04:38:16;;;;;;;18.20;10.65;;;;;;;21.16;43.46;93259.47;4698321;29;20068;-91
2021/05/14 04:40:42;;;;;;;11.90;4.20;;;;;;;21.72;40.99;93249.66;4737308;30;20039;-92
2021/05/14 04:43:34;;;;;;;10.27;3.70;;;;;;;21.23;42.54;93233.81;4756851;29;20050;-92
2021/05/14 04:46:16;;;;;;;6.78;3.05;;;;;;;21.64;42.09;93246.13;4796284;29;20492;-92
2021/05/14 04:53:18;;;;;;;5.55;2.45;;;;;;;21.92;41.05;93222.16;4817069;29;20524;-92
2021/05/14 04:55:57;;;;;;;7.10;2.92;;;;;;;22.50;39.01;93218.72;4765433;29;20057;-94
2021/05/14 04:58:37;;;;;;;11.23;3.10;;;;;;;22.39;40.15;93256.34;4802259;29;20057;-94
2021/05/14 05:01:16;;;;;;;6.85;2.92;;;;;;;21.41;41.53;93240.13;4864499;29;20049;-93
2021/05/14 05:04:25;;;;;;;;;;;;;;;;;;;;;
2021/05/14 05:07:09;;;;;;;8.93;3.58;;;;;;;21.39;42.49;93266.63;4852874;29;20045;-92
2021/05/14 05:09:53;;;;;;;7.20;3.20;;;;;;;22.37;39.29;93252.50;4820887;29;20128;-89
2021/05/14 05:12:33;;;;;;;6.40;2.97;;;;;;;23.15;38.62;93258.28;4850950;29;20581;-91
2021/05/14 05:15:00;;;;;;;6.70;3.30;;;;;;;22.68;38.66;93235.72;4814449;29;20458;-85
2021/05/14 05:17:26;;;;;;;8.82;3.80;;;;;;;22.28;40.21;93227.81;4826234;29;20051;-82
2021/05/14 05:19:58;;;;;;;11.52;6.50;;;;;;;22.54;40.05;93257.19;4865698;29;20091;-84
2021/05/14 05:22:23;;;;;;;5.15;3.60;;;;;;;23.50;38.76;93274.59;4864333;29;20045;-84
2021/05/14 05:24:49;;;;;;;10.23;3.80;;;;;;;23.72;38.34;93265.38;4864664;29;20049;-84
2021/05/14 05:27:15;;;;;;;11.85;3.92;;;;;;;24.10;37.32;93271.19;4863433;29;20073;-85
2021/05/14 05:29:40;;;;;;;7.68;4.28;;;;;;;24.81;36.07;93273.84;4861753;29;20494;-84
2021/05/14 05:32:07;;;;;;;9.88;3.90;;;;;;;25.20;34.94;93273.72;4866348;29;20051;-83
2021/05/14 05:34:32;;;;;;;11.82;3.78;;;;;;;25.33;34.07;93283.72;4847548;29;20072;-83
2021/05/14 05:36:58;;;;;;;7.85;3.83;;;;;;;24.60;34.95;93280.81;4869442;29;20172;-83
2021/05/14 05:39:23;;;;;;;11.90;4.95;;;;;;;24.28;35.57;93290.91;4863039;29;20045;-82
2021/05/14 05:41:49;;;;;;;11.43;4.53;;;;;;;23.34;37.27;93287.63;4861047;29;20037;-83
2021/05/14 05:44:15;;;;;;;16.50;5.07;;;;;;;22.11;39.49;93307.28;4850259;29;20113;-82
2021/05/14 05:46:41;;;;;;;10.52;5.05;;;;;;;21.34;41.31;93318.03;4866438;29;20045;-82
2021/05/14 05:49:08;;;;;;;19.48;5.45;;;;;;;20.60;42.51;93310.53;4865174;29;20093;-82
2021/05/14 05:51:34;;;;;;;8.13;4.80;;;;;;;21.41;41.02;93320.78;4865750;29;20053;-83
2021/05/14 05:54:00;;;;;;;9.68;4.85;;;;;;;21.72;40.83;93314.19;4866098;29;20060;-82
2021/05/14 05:56:28;;;;;;;13.27;4.55;;;;;;;22.96;38.76;93315.19;4868936;29;20040;-83
2021/05/14 05:58:54;;;;;;;10.98;5.05;;;;;;;23.60;36.99;93310.84;4863359;29;20104;-83
2021/05/14 06:01:20;;;;;;;11.10;5.53;;;;;;;22.90;37.69;93325.53;4864504;29;20048;-83
2021/05/14 06:03:47;;;;;;;16.98;5.20;;;;;;;22.81;38.61;93319.72;4864287;29;20048;-83
2021/05/14 06:06:13;;;;;;;8.68;4.25;;;;;;;22.75;38.90;93322.00;4847538;29;20056;-84
2021/05/14 06:08:38;;;;;;;8.25;4.57;;;;;;;23.46;37.36;93316.94;4856751;29;20029;-81
2021/05/14 06:11:04;;;;;;;10.80;3.90;;;;;;;24.00;35.99;93310.50;4850263;29;20037;-84
2021/05/14 06:13:32;;;;;;;12.07;4.53;;;;;;;24.40;35.91;93304.00;4848977;29;20414;-86
2021/05/14 06:15:59;;;;;;;7.82;4.32;;;;;;;24.01;36.23;93320.16;4866922;29;20135;-81
2021/05/14 06:18:26;;;;;;;10.85;3.75;;;;;;;23.23;37.01;93316.44;4865048;29;20056;-87
2021/05/14 06:20:52;;;;;;;7.20;3.83;;;;;;;23.17;38.52;93323.34;4867311;29;20064;-84
2021/05/14 06:23:17;;;;;;;9.70;4.30;;;;;;;22.42;39.35;93314.06;4867509;29;20128;-81
2021/05/14 06:25:43;;;;;;;0.70;0.35;;;;;;;21.74;35.28;93291.19;4856486;29;20041;-86
2021/05/14 06:28:20;;;;;;;3.70;0.60;;;;;;;20.79;38.01;93311.53;4865050;29;20125;-83
2021/05/14 06:30:48;;;;;;;6.13;2.70;;;;;;;20.38;41.63;93313.28;4850838;29;20108;-83
2021/05/14 06:33:14;;;;;;;6.10;2.15;;;;;;;20.18;41.11;93326.75;4853671;29;20049;-83
2021/05/14 06:35:40;;;;;;;4.38;1.55;;;;;;;20.51;41.48;93314.63;4865277;29;20729;-83
2021/05/14 06:38:06;;;;;;;7.53;1.90;;;;;;;20.80;38.88;93313.88;4866281;29;20033;-83
2021/05/14 06:40:32;;;;;;;2.40;1.23;;;;;;;20.91;39.70;93314.81;4864643;29;20515;-83
2021/05/14 06:42:58;;;;;;;7.32;1.70;;;;;;;20.69;40.68;93307.59;4850450;29;20041;-83
2021/05/14 06:45:26;;;;;;;2.85;1.27;;;;;;;21.98;40.53;93314.88;4864255;29;20334;-82
2021/05/14 06:47:52;;;;;;;2.17;0.60;;;;;;;22.63;33.91;93297.25;4863220;29;20029;-83
2021/05/14 06:50:18;;;;;;;1.20;0.60;;;;;;;22.51;33.86;93306.41;4865464;29;20056;-84
2021/05/14 06:52:43;;;;;;;4.28;1.15;;;;;;;22.98;35.02;93312.88;4866004;29;20135;-82
2021/05/14 06:55:10;;;;;;;2.92;0.85;;;;;;;23.59;33.41;93310.06;4881521;29;20529;-81
2021/05/14 06:57:36;;;;;;;5.93;2.20;;;;;;;23.17;31.76;93326.03;4883473;29;20104;-82
2021/05/14 07:00:04;;;;;;;4.35;1.10;;;;;;;23.00;35.23;93319.44;4883500;29;21042;-84
2021/05/14 07:02:29;;;;;;;1.00;0.40;;;;;;;22.86;33.54;93320.16;4883953;29;20084;-81
2021/05/14 07:04:55;;;;;;;4.68;0.50;;;;;;;22.24;33.20;93310.44;4884154;29;20040;-82
2021/05/14 07:07:21;;;;;;;1.25;0.55;;;;;;;21.87;34.60;93322.03;4882034;29;20104;-82
2021/05/14 07:09:46;;;;;;;5.10;1.25;;;;;;;21.89;34.36;93314.34;4883000;29;20060;-83
2021/05/14 07:12:12;;;;;;;0.65;0.45;;;;;;;21.86;36.13;93315.09;4880657;29;20402;-82
2021/05/14 07:14:38;;;;;;;1.50;0.60;;;;;;;21.87;35.07;93313.19;4884400;29;20040;-84
2021/05/14 07:17:03;;;;;;;1.80;0.65;;;;;;;21.92;35.04;93302.88;4884672;29;20040;-84
2021/05/14 07:19:29;;;;;;;1.27;0.30;;;;;;;22.00;35.61;93293.72;4883879;29;20051;-83
2021/05/14 07:21:55;;;;;;;1.27;0.30;;;;;;;22.17;35.70;93288.88;4865419;29;20056;-83
2021/05/14 07:24:21;;;;;;;6.88;2.97;;;;;;;22.44;34.76;93295.59;4881103;29;20037;-83
2021/05/14 07:26:46;;;;;;;2.35;0.90;;;;;;;22.12;33.73;93291.91;4884634;29;20095;-84
2021/05/14 07:29:15;;;;;;;0.63;0.50;;;;;;;21.88;34.79;93291.31;4884310;29;20031;-86
2021/05/14 07:31:40;;;;;;;0.73;0.43;;;;;;;21.70;35.33;93306.47;4879058;29;20515;-83
2021/05/14 07:34:06;;;;;;;5.10;1.55;;;;;;;21.53;34.37;93299.81;4865339;29;20052;-88
2021/05/14 07:36:31;;;;;;;2.15;0.80;;;;;;;21.57;35.89;93283.69;4883373;29;20044;-82
2021/05/14 07:38:57;;;;;;;2.75;0.40;;;;;;;21.15;34.60;93298.25;4882148;29;20046;-88
2021/05/14 07:41:23;;;;;;;2.28;0.40;;;;;;;20.59;34.99;93286.72;4884760;29;20028;-88
2021/05/14 07:43:48;;;;;;;4.80;1.13;;;;;;;20.27;35.56;93303.13;4881341;29;20047;-86
2021/05/14 07:46:14;;;;;;;0.45;0.40;;;;;;;20.16;34.99;93296.81;4865648;29;20040;-84
2021/05/14 07:48:39;;;;;;;3.00;1.17;;;;;;;20.22;36.37;93300.75;4884577;29;20041;-84
2021/05/14 07:51:05;;;;;;;2.05;0.30;;;;;;;19.83;35.40;93300.13;4881390;29;20047;-80
2021/05/14 07:53:30;;;;;;;3.90;0.90;;;;;;;20.28;37.35;93303.91;4882457;29;20047;-81
2021/05/14 07:55:56;;;;;;;3.50;0.90;;;;;;;20.55;37.43;93307.38;4882558;29;20040;-85
2021/05/14 07:58:22;;;;;;;1.08;0.60;;;;;;;20.60;35.13;93304.41;4865092;29;20127;-83
2021/05/14 08:00:49;;;;;;;3.55;0.70;;;;;;;20.84;34.99;93321.97;4882642;29;20036;-84
2021/05/14 08:03:16;;;;;;;1.10;0.50;;;;;;;20.27;34.01;93313.09;4881332;29;20048;-86
2021/05/14 08:05:41;;;;;;;0.63;0.30;;;;;;;19.95;34.48;93296.47;4867233;29;20039;-84
2021/05/14 08:08:13;;;;;;;1.58;0.45;;;;;;;20.17;35.26;93305.66;4884216;29;20422;-82
2021/05/14 08:10:39;;;;;;;0.75;0.50;;;;;;;19.94;34.74;93311.03;4883718;29;20461;-84
2021/05/14 08:13:04;;;;;;;0.55;0.40;;;;;;;19.89;35.27;93297.91;4879790;29;20566;-82
2021/05/14 08:15:30;;;;;;;4.03;0.47;;;;;;;19.63;34.84;93301.31;4884189;29;20047;-86
2021/05/14 08:17:56;;;;;;;2.83;0.47;;;;;;;19.20;36.03;93298.97;4882751;29;20100;-85
2021/05/14 08:20:22;;;;;;;1.30;0.60;;;;;;;19.81;35.60;93299.72;4884101;29;20060;-83
2021/05/14 08:22:49;;;;;;;0.73;0.68;;;;;;;21.23;33.47;93299.09;4881139;29;20064;-85
2021/05/14 08:25:14;;;;;;;1.75;0.40;;;;;;;21.72;31.37;93298.06;4883336;29;20048;-82
2021/05/14 08:27:45;;;;;;;2.38;0.50;;;;;;;22.96;32.35;93293.63;4882840;29;20402;-87
2021/05/14 08:30:13;;;;;;;2.00;0.43;;;;;;;24.62;28.97;93272.34;4878827;29;20632;-82
2021/05/14 08:32:38;;;;;;;2.38;0.38;;;;;;;24.47;28.10;93290.50;4882649;29;20028;-83
2021/05/14 08:35:06;;;;;;;1.27;0.30;;;;;;;25.45;28.01;93288.69;4884629;29;20087;-83
2021/05/14 08:37:31;;;;;;;1.65;0.43;;;;;;;26.62;27.13;93289.84;4881001;29;20077;-86
2021/05/14 08:39:57;;;;;;;1.65;0.50;;;;;;;27.23;25.45;93279.16;4882081;29;20469;-85
2021/05/14 08:42:23;;;;;;;1.17;0.30;;;;;;;28.26;25.25;93283.97;4865754;29;20040;-83
2021/05/14 08:44:48;;;;;;;0.55;0.28;;;;;;;28.20;24.63;93291.84;4868667;29;20025;-82
2021/05/14 08:47:15;;;;;;;1.88;0.30;;;;;;;28.18;24.27;93293.44;4887808;29;20024;-83
2021/05/14 08:49:44;;;;;;;1.30;0.32;;;;;;;28.94;23.99;93294.50;4883707;29;20091;-83
2021/05/14 08:52:11;;;;;;;3.70;0.32;;;;;;;27.55;24.12;93290.41;4882673;29;20045;-81
2021/05/14 08:54:42;;;;;;;2.60;0.40;;;;;;;27.57;25.57;93298.91;4884291;29;20056;-82
2021/05/14 08:57:09;;;;;;;2.15;0.50;;;;;;;27.76;25.06;93313.81;4883592;29;20056;-86
2021/05/14 08:59:34;;;;;;;2.03;0.40;;;;;;;28.40;23.36;93289.97;4887865;29;20025;-82
2021/05/14 09:02:00;;;;;;;2.70;0.50;;;;;;;27.43;24.76;93304.47;4879514;29;20521;-86
2021/05/14 09:04:30;;;;;;;1.70;0.30;;;;;;;26.92;25.58;93311.66;4799311;29;20050;-85
2021/05/14 09:06:58;;;;;;;0.77;0.20;;;;;;;27.96;25.18;93291.00;4855933;29;20040;-93
2021/05/14 09:09:24;;;;;;;1.27;0.40;;;;;;;28.89;24.22;93314.03;4880659;29;20458;-90
2021/05/14 09:11:53;;;;;;;4.85;0.75;;;;;;;30.10;23.07;93292.16;4881742;29;20043;-89
2021/05/14 09:14:42;;;;;;;1.30;0.30;;;;;;;29.70;23.15;93317.94;4883419;29;20664;-92
2021/05/14 09:17:18;;;;;;;3.00;0.28;;;;;;;29.80;23.27;93327.06;4854201;29;20231;-88
2021/05/14 09:19:46;;;;;;;1.98;0.40;;;;;;;30.00;24.06;93303.31;4869276;29;20536;-84
2021/05/14 09:22:24;;;;;;;1.08;0.20;;;;;;;29.98;22.97;93322.81;4886289;29;20086;-86
2021/05/14 09:24:57;;;;;;;2.17;0.30;;;;;;;27.91;24.24;93317.84;4886304;29;20056;-90
2021/05/14 09:27:30;;;;;;;2.05;0.45;;;;;;;26.94;25.31;93339.13;4886378;29;20052;-93
2021/05/14 09:30:00;;;;;;;1.42;0.30;;;;;;;26.52;27.36;93306.97;4871024;29;20099;-88
2021/05/14 09:32:33;;;;;;;0.65;0.30;;;;;;;26.25;27.75;93310.28;4888292;29;20115;-91
2021/05/14 09:35:01;;;;;;;1.45;0.40;;;;;;;26.42;25.88;93321.38;4886017;29;20458;-88
2021/05/14 09:37:28;;;;;;;1.83;0.20;;;;;;;26.52;27.44;93317.81;4883822;29;20051;-87
2021/05/14 09:40:16;;;;;;;1.33;0.43;;;;;;;26.43;26.90;93331.03;4885359;29;20651;-88
2021/05/14 09:42:58;;;;;;;1.50;0.32;;;;;;;25.51;28.74;93299.84;4836079;29;20513;-92
2021/05/14 09:45:35;;;;;;;0.47;0.30;;;;;;;25.31;28.09;93323.91;4883340;29;20048;-94
2021/05/14 09:48:01;;;;;;;2.65;0.50;;;;;;;24.82;29.26;93275.38;4843693;29;20112;-89
2021/05/14 09:50:37;;;;;;;2.05;0.80;;;;;;;25.18;29.40;93282.22;4863529;29;20059;-95
2021/05/14 09:53:11;;;;;;;4.65;2.05;;;;;;;25.55;28.51;93294.47;4855765;29;20071;-93
2021/05/14 09:55:40;;;;;;;0.65;0.40;;;;;;;25.30;28.48;93284.50;4884890;29;20047;-87
2021/05/14 09:58:19;;;;;;;2.10;0.40;;;;;;;25.60;30.87;93323.81;4885621;29;20045;-94
2021/05/14 10:00:45;;;;;;;6.03;0.50;;;;;;;25.34;31.29;93315.00;4886754;29;20490;-91
2021/05/14 10:03:15;;;;;;;3.10;0.73;;;;;;;25.38;31.14;93342.81;4883351;29;20092;-90
2021/05/14 10:05:42;;;;;;;3.22;0.40;;;;;;;25.01;32.63;93337.91;4869503;29;20076;-88
2021/05/14 10:08:08;;;;;;;4.00;0.50;;;;;;;24.36;35.13;93324.06;4885609;29;20298;-86
2021/05/14 10:10:37;;;;;;;1.58;0.60;;;;;;;24.32;35.63;93329.47;4883803;29;20431;-93
2021/05/14 10:13:03;;;;;;;2.03;0.40;;;;;;;24.58;37.48;93364.16;4883853;29;20037;-92
2021/05/14 10:15:31;;;;;;;5.35;1.48;;;;;;;24.27;35.58;93359.56;4882736;29;20553;-89
2021/05/14 10:17:58;;;;;;;2.88;1.02;;;;;;;24.19;38.93;93355.28;4870236;29;20045;-89
2021/05/14 10:20:30;;;;;;;4.88;0.60;;;;;;;24.19;38.21;93347.19;4884825;29;20547;-93
2021/05/14 10:23:00;;;;;;;5.03;1.88;;;;;;;24.25;39.89;93351.06;4885489;29;20065;-92
2021/05/14 10:25:38;;;;;;;9.35;0.70;;;;;;;24.58;40.63;93356.06;4883629;29;20071;-92
2021/05/14 10:28:20;;;;;;;3.05;0.60;;;;;;;24.73;39.13;93358.78;4886313;29;20048;-92
2021/05/14 10:30:58;;;;;;;1.55;0.70;;;;;;;24.91;39.52;93348.75;4884816;29;20155;-93
2021/05/14 10:33:43;;;;;;;1.58;0.90;;;;;;;24.54;36.98;93344.50;4881999;29;20044;-92
2021/05/14 10:36:21;;;;;;;4.05;0.75;;;;;;;24.22;38.92;93343.75;4861099;29;20041;-94
2021/05/14 10:39:05;;;;;;;1.40;0.68;;;;;;;24.10;34.98;93338.66;4885666;29;20576;-92
2021/05/14 10:41:31;;;;;;;1.02;0.43;;;;;;;24.18;34.14;93313.28;4870684;29;20036;-88
2021/05/14 10:44:05;;;;;;;0.95;0.50;;;;;;;24.31;35.17;93324.44;4867350;29;20045;-91
2021/05/14 10:46:31;;;;;;;3.53;0.80;;;;;;;24.14;35.64;93321.31;4885142;29;20433;-88
2021/05/14 10:49:01;;;;;;;1.35;0.40;;;;;;;24.21;36.64;93334.09;4885139;29;20036;-91
2021/05/14 10:51:51;;;;;;;2.22;0.80;;;;;;;24.25;38.13;93340.25;4885770;29;20400;-92
2021/05/14 10:54:38;;;;;;;3.92;1.60;;;;;;;24.22;33.52;93335.63;4883473;29;20517;-91
2021/05/14 10:57:09;;;;;;;1.25;0.60;;;;;;;24.19;32.42;93328.28;4884728;29;20577;-88
2021/05/14 10:59:42;;;;;;;1.73;0.75;;;;;;;24.18;34.17;93305.16;4880320;29;20033;-90
2021/05/14 11:02:33;;;;;;;2.40;0.60;;;;;;;24.31;34.10;93333.31;4861982;29;20051;-91
2021/05/14 11:05:01;;;;;;;3.33;0.63;;;;;;;24.21;32.17;93327.91;4879741;29;20189;-91
2021/05/14 11:07:39;;;;;;;0.70;0.40;;;;;;;24.14;33.49;93318.63;4865007;29;20048;-89
2021/05/14 11:10:14;;;;;;;2.90;0.60;;;;;;;24.41;33.91;93340.66;4879450;29;20057;-93
2021/05/14 11:12:53;;;;;;;;;;;;;;;24.26;34.78;93344.50;4864981;29;20052;-94
2021/05/14 11:15:18;;;;;;;1.83;0.60;;;;;;;24.03;34.75;93344.84;4880792;29;19919;-92
2021/05/14 11:18:06;;;;;;;2.40;0.60;;;;;;;24.06;34.98;93332.50;4882458;29;20115;-94
2021/05/14 11:20:46;;;;;;;2.45;0.60;;;;;;;23.89;34.48;93311.66;4865898;29;20112;-96
2021/05/14 11:23:43;;;;;;;1.20;0.82;;;;;;;24.26;34.61;93347.19;4880288;29;20044;-93
2021/05/14 11:26:18;;;;;;;5.55;0.98;;;;;;;24.17;33.38;93282.78;4878442;29;20040;-95
2021/05/14 11:28:52;;;;;;;1.92;0.70;;;;;;;24.73;33.11;93327.09;4819191;29;20052;-96
2021/05/14 11:31:43;;;;;;;;;;;;;;;;;;;;;
2021/05/14 11:34:14;;;;;;;1.20;0.40;;;;;;;24.53;29.16;93280.06;4879766;29;20583;-86
2021/05/14 11:36:47;;;;;;;2.15;0.45;;;;;;;24.63;30.10;93295.47;4797773;29;20045;-96
2021/05/14 11:39:22;;;;;;;1.38;0.43;;;;;;;24.49;30.27;93301.66;4851730;29;20108;-92
2021/05/14 11:41:47;;;;;;;;;;;;;;;24.73;32.28;93326.38;4862605;29;20056;-92
2021/05/14 11:44:14;;;;;;;0.55;0.40;;;;;;;24.48;30.19;93293.97;4880954;29;20014;-87
2021/05/14 11:46:42;;;;;;;0.68;0.32;;;;;;;24.34;29.68;93289.34;4863798;29;20079;-88
2021/05/14 11:49:24;;;;;;;0.57;0.43;;;;;;;24.39;29.39;93267.34;4870408;29;20139;-94
2021/05/14 11:52:02;;;;;;;1.90;0.30;;;;;;;24.68;29.67;93283.53;4856412;29;20272;-89
2021/05/14 11:54:32;;;;;;;1.48;0.40;;;;;;;24.64;30.32;93264.59;4860099;29;20056;-82
2021/05/14 11:57:00;;;;;;;2.67;0.60;;;;;;;24.79;28.20;93297.75;4866794;29;20573;-83
2021/05/14 11:59:26;;;;;;;4.47;0.95;;;;;;;24.76;29.44;93293.16;4878234;29;20040;-84
2021/05/14 12:01:51;;;;;;;2.55;0.63;;;;;;;24.50;29.23;93295.13;4882688;29;20433;-82
2021/05/14 12:04:16;;;;;;;1.23;0.40;;;;;;;24.37;28.68;93296.69;4879547;29;20040;-82
2021/05/14 12:06:51;;;;;;;1.50;0.52;;;;;;;24.32;29.70;93290.88;4853799;29;20139;-87
2021/05/14 12:09:17;;;;;;;2.60;0.40;;;;;;;24.33;29.80;93312.13;4863112;29;20691;-85
2021/05/14 12:11:48;;;;;;;1.15;0.40;;;;;;;24.24;28.45;93300.91;4864889;29;20099;-84
2021/05/14 12:14:26;;;;;;;1.98;0.68;;;;;;;24.27;28.80;93310.94;4884311;29;20442;-83
2021/05/14 12:16:54;;;;;;;2.45;0.60;;;;;;;24.29;29.17;93307.88;4882560;29;20513;-84
2021/05/14 12:19:19;;;;;;;1.98;0.60;;;;;;;24.36;29.34;93313.25;4886671;29;20036;-86
2021/05/14 12:21:45;;;;;;;3.85;0.50;;;;;;;24.21;29.97;93325.22;4884338;29;20953;-84
2021/05/14 12:24:18;;;;;;;2.28;0.40;;;;;;;24.20;28.63;93324.44;4881664;29;20099;-86
2021/05/14 12:26:45;;;;;;;1.50;0.35;;;;;;;24.31;30.04;93344.13;4882876;29;20032;-85
2021/05/14 12:29:23;;;;;;;1.58;0.85;;;;;;;23.98;29.66;93364.13;4886765;29;20024;-86
2021/05/14 12:31:57;;;;;;;1.02;0.40;;;;;;;23.47;30.16;93363.56;4869642;29;20045;-86
2021/05/14 12:34:25;;;;;;;3.25;0.50;;;;;;;22.94;30.67;93371.38;4885028;29;20044;-92
2021/05/14 12:37:02;;;;;;;0.90;0.40;;;;;;;22.15;31.89;93353.03;4869464;29;20556;-85
2021/05/14 12:39:50;;;;;;;2.90;0.50;;;;;;;21.57;33.41;93350.91;4882872;29;20051;-88
2021/05/14 12:42:29;;;;;;;1.90;0.70;;;;;;;21.38;33.83;93349.16;4877815;29;20045;-92
2021/05/14 12:44:58;;;;;;;3.13;0.60;;;;;;;21.36;35.50;93345.28;4882240;29;20111;-90
2021/05/14 12:47:36;;;;;;;3.28;0.50;;;;;;;21.38;35.79;93359.16;4885906;29;20742;-92
2021/05/14 12:50:06;;;;;;;4.38;0.50;;;;;;;21.23;36.07;93379.69;4885547;29;20036;-92
2021/05/14 12:52:35;;;;;;;1.33;0.32;;;;;;;20.68;36.55;93359.72;4883223;29;20050;-90
2021/05/14 12:55:06;;;;;;;2.97;0.40;;;;;;;21.13;37.38;93407.97;4885246;29;20059;-84
2021/05/14 12:57:42;;;;;;;2.60;0.50;;;;;;;21.05;36.35;93403.63;4883908;29;20699;-85
2021/05/14 13:00:28;;;;;;;5.40;0.55;;;;;;;20.64;37.29;93401.88;4863132;29;20049;-83
2021/05/14 13:03:04;;;;;;;1.58;0.43;;;;;;;20.18;37.96;93401.84;4886812;29;20108;-88
2021/05/14 13:05:41;;;;;;;2.65;0.60;;;;;;;20.08;38.04;93396.34;4880982;29;20318;-92
2021/05/14 13:08:11;;;;;;;0.30;0.30;;;;;;;19.89;38.39;93378.34;4862459;29;20522;-89
2021/05/14 13:10:44;;;;;;;1.80;0.65;;;;;;;20.21;38.52;93395.00;4881780;29;20421;-88
2021/05/14 13:13:15;;;;;;;2.15;0.40;;;;;;;20.05;39.01;93384.41;4865783;29;20053;-89
2021/05/14 13:15:42;;;;;;;4.78;0.50;;;;;;;19.85;38.74;93385.56;4885222;29;20135;-84
2021/05/14 13:18:08;;;;;;;1.25;0.40;;;;;;;20.19;38.72;93395.38;4872068;29;20044;-88
2021/05/14 13:20:34;;;;;;;0.75;0.30;;;;;;;20.09;36.27;93345.00;4868636;29;20087;-88
2021/05/14 13:23:00;;;;;;;1.45;0.47;;;;;;;20.55;35.68;93388.69;4884087;29;20127;-89
2021/05/14 13:25:26;;;;;;;0.32;0.30;;;;;;;20.90;36.02;93377.72;4883639;29;20040;-91
2021/05/14 13:28:00;;;;;;;0.65;0.20;;;;;;;21.31;34.16;93353.69;4862947;29;20074;-88
2021/05/14 13:30:26;;;;;;;1.35;0.50;;;;;;;21.99;35.98;93380.22;4882244;29;20294;-85
2021/05/14 13:32:55;;;;;;;3.30;0.20;;;;;;;22.32;34.15;93390.13;4881662;29;20040;-92
2021/05/14 13:35:20;;;;;;;1.48;1.00;;;;;;;22.57;33.42;93396.50;4870936;29;20040;-89
2021/05/14 13:37:46;;;;;;;1.13;0.50;;;;;;;22.62;31.67;93366.53;4882016;29;20415;-89
2021/05/14 13:40:13;;;;;;;1.85;0.30;;;;;;;22.40;31.97;93370.19;4882168;29;20047;-87
2021/05/14 13:42:38;;;;;;;4.00;1.05;;;;;;;22.38;32.05;93370.53;4883728;29;20036;-89
2021/05/14 13:45:09;;;;;;;0.32;0.20;;;;;;;22.20;31.12;93366.16;4880545;29;20040;-84
2021/05/14 13:47:35;;;;;;;0.30;0.30;;;;;;;22.34;31.57;93339.38;4887365;29;20017;-92
2021/05/14 13:50:01;;;;;;;0.47;0.28;;;;;;;22.70;32.52;93351.97;4866931;29;20051;-83
2021/05/14 13:52:26;;;;;;;2.88;0.30;;;;;;;22.83;31.46;93318.19;4865220;29;20052;-91
2021/05/14 13:54:52;;;;;;;1.63;0.35;;;;;;;22.93;32.55;93329.38;4883043;29;20140;-90
2021/05/14 13:57:17;;;;;;;1.55;0.57;;;;;;;22.77;32.59;93357.41;4882616;29;20477;-87
2021/05/14 13:59:43;;;;;;;0.93;0.35;;;;;;;22.20;34.13;93371.53;4884428;29;20617;-85
2021/05/14 14:02:09;;;;;;;1.38;0.50;;;;;;;21.91;34.80;93375.84;4864739;29;20051;-88
2021/05/14 14:04:35;;;;;;;0.65;0.50;;;;;;;21.85;34.58;93390.78;4884419;29;20036;-89
2021/05/14 14:07:01;;;;;;;2.78;0.57;;;;;;;21.36;33.87;93404.41;4882256;29;20032;-90
2021/05/14 14:09:28;;;;;;;1.70;0.40;;;;;;;21.22;33.39;93369.31;4864385;29;20287;-88
2021/05/14 14:11:54;;;;;;;0.90;0.50;;;;;;;21.02;34.59;93415.09;4877554;29;20049;-91
2021/05/14 14:14:20;;;;;;;3.10;0.50;;;;;;;20.94;34.81;93356.25;4883456;29;20037;-91
2021/05/14 14:16:52;;;;;;;3.50;1.55;;;;;;;21.39;34.72;93391.03;4883180;29;20047;-87
2021/05/14 14:19:17;;;;;;;1.95;1.13;;;;;;;21.19;33.99;93373.50;4880072;29;20061;-91
2021/05/14 14:21:43;;;;;;;0.93;0.60;;;;;;;21.15;32.69;93373.47;4865493;29;20466;-92